Portada
METAR-TAF:

METAR-TAF

Aeropuertos :

Tiaret, Argelia

latitud: 35-15N, longitud: 001-26E, altitud: 1127 m

Observación

El informe se hizo hace 1 hora y 0 minutos, a las 02:00 UTC
Viento calma
Temperatura 11°C
Humedad 87%
Presión 1020 hPa
Visibilidad 10 km o más
sin nubes por debajo de 1500 m y sin presencia de cumulonimbus.

METAR: DAOB 220200Z 00000KT CAVOK 11/09 Q1020

Hora: 04:00 (03:00 UTC)

Pronóstico

El informe se hizo hace 4 horas y 0 minutos, a las 23:00 UTC
Pronóstico válido del 22 a las 00 UTC al 22 a las 24 UTC
Viento 2 kt con dirección variable
Visibilidad 10 km o más
sin nubes por debajo de 1500 m y sin presencia de cumulonimbus.
Evolucionando progresivamente
del 22 a las 08 UTC al 22 a las 11 UTC
Viento 10 kt del noroeste
Evolucionando progresivamente
del 22 a las 18 UTC al 22 a las 21 UTC
Viento 2 kt con dirección variable

TAF: DAOB 212300Z 2200/2224 VRB02KT CAVOK BECMG 2208/2211 32010KT BECMG 2218/2221 VRB02KT

Observaciones y pronósticos meteorológicos de más de 4000 aeropuertos (mensajes METAR y TAF).

Los puntos amarillos y rojos representan las estaciones disponibles.

Ponga el ratón en el punto deseado para ver el nombre de la estación.

Haga clic para ver las observaciones y los pronósticos meteorológicos.

Para cambiar el mapa : haga clic en los botones verdes con una cruz de color negro para hacer un zoom, en el botón verde con un guión para alejar o en las flechas verdes para mapas adyacentes.


METAR-TAF: